sensor_id;sensor_type;location;lat;lon;timestamp;pressure;altitude;pressure_sealevel;temperature;humidity
62617;BME280;62539;51.190;6.808;2023-08-06T00:00:13;100149.72;;;20.77;65.20
62617;BME280;62539;51.190;6.808;2023-08-06T00:02:39;100148.88;;;20.77;65.16
62617;BME280;62539;51.190;6.808;2023-08-06T00:05:04;100141.03;;;20.75;65.32
62617;BME280;62539;51.190;6.808;2023-08-06T00:07:30;100148.94;;;20.75;65.04
62617;BME280;62539;51.190;6.808;2023-08-06T00:09:56;100140.28;;;20.73;65.18
62617;BME280;62539;51.190;6.808;2023-08-06T00:12:21;100141.19;;;20.72;65.38
62617;BME280;62539;51.190;6.808;2023-08-06T00:14:50;100137.63;;;20.73;65.45
62617;BME280;62539;51.190;6.808;2023-08-06T00:17:16;100136.88;;;20.71;65.17
62617;BME280;62539;51.190;6.808;2023-08-06T00:19:42;100129.88;;;20.70;65.38
62617;BME280;62539;51.190;6.808;2023-08-06T00:22:07;100125.56;;;20.69;65.41
62617;BME280;62539;51.190;6.808;2023-08-06T00:24:34;100122.91;;;20.69;65.26
62617;BME280;62539;51.190;6.808;2023-08-06T00:27:00;100127.41;;;20.67;65.50
62617;BME280;62539;51.190;6.808;2023-08-06T00:29:25;100126.59;;;20.66;65.46
62617;BME280;62539;51.190;6.808;2023-08-06T00:31:50;100125.81;;;20.64;65.40
62617;BME280;62539;51.190;6.808;2023-08-06T00:34:16;100124.94;;;20.64;65.37
62617;BME280;62539;51.190;6.808;2023-08-06T00:36:41;100125.06;;;20.62;65.33
62617;BME280;62539;51.190;6.808;2023-08-06T00:39:07;100125.06;;;20.62;65.32
62617;BME280;62539;51.190;6.808;2023-08-06T00:41:32;100127.75;;;20.61;65.66
62617;BME280;62539;51.190;6.808;2023-08-06T00:43:58;100124.34;;;20.59;65.46
62617;BME280;62539;51.190;6.808;2023-08-06T00:46:23;100114.84;;;20.56;65.55
62617;BME280;62539;51.190;6.808;2023-08-06T00:48:49;100123.56;;;20.56;65.47
62617;BME280;62539;51.190;6.808;2023-08-06T00:51:16;100129.78;;;20.55;65.56
62617;BME280;62539;51.190;6.808;2023-08-06T00:53:42;100133.34;;;20.54;65.69
62617;BME280;62539;51.190;6.808;2023-08-06T00:56:08;100132.50;;;20.54;65.71
62617;BME280;62539;51.190;6.808;2023-08-06T00:58:35;100131.66;;;20.53;65.83
62617;BME280;62539;51.190;6.808;2023-08-06T01:01:02;100124.69;;;20.52;65.62
62617;BME280;62539;51.190;6.808;2023-08-06T01:03:27;100123.84;;;20.52;65.62
62617;BME280;62539;51.190;6.808;2023-08-06T01:05:53;100119.41;;;20.52;65.52
62617;BME280;62539;51.190;6.808;2023-08-06T01:08:47;100122.19;;;20.49;65.67
62617;BME280;62539;51.190;6.808;2023-08-06T01:11:58;100121.44;;;20.47;66.00
62617;BME280;62539;51.190;6.808;2023-08-06T01:17:14;100111.66;;;20.49;65.77
62617;BME280;62539;51.190;6.808;2023-08-06T01:19:40;100108.19;;;20.49;65.55
62617;BME280;62539;51.190;6.808;2023-08-06T01:22:05;100112.53;;;20.50;65.60
62617;BME280;62539;51.190;6.808;2023-08-06T01:24:31;100114.28;;;20.49;65.83
62617;BME280;62539;51.190;6.808;2023-08-06T01:27:14;100111.59;;;20.51;65.80
62617;BME280;62539;51.190;6.808;2023-08-06T01:29:56;100110.72;;;20.50;65.86
62617;BME280;62539;51.190;6.808;2023-08-06T01:32:32;100110.72;;;20.50;65.63
62617;BME280;62539;51.190;6.808;2023-08-06T01:35:01;100113.38;;;20.50;65.51
62617;BME280;62539;51.190;6.808;2023-08-06T01:37:29;100102.94;;;20.49;65.84
62617;BME280;62539;51.190;6.808;2023-08-06T01:39:55;100104.63;;;20.50;65.49
62617;BME280;62539;51.190;6.808;2023-08-06T01:42:20;100098.50;;;20.49;65.75
62617;BME280;62539;51.190;6.808;2023-08-06T01:44:46;100092.28;;;20.50;65.83
62617;BME280;62539;51.190;6.808;2023-08-06T01:47:11;100099.34;;;20.50;65.51
62617;BME280;62539;51.190;6.808;2023-08-06T01:49:37;100089.66;;;20.50;65.52
62617;BME280;62539;51.190;6.808;2023-08-06T01:52:03;100100.19;;;20.50;65.86
62617;BME280;62539;51.190;6.808;2023-08-06T01:54:28;100098.50;;;20.49;65.79
62617;BME280;62539;51.190;6.808;2023-08-06T01:56:54;100092.38;;;20.49;65.43
62617;BME280;62539;51.190;6.808;2023-08-06T01:59:19;100089.66;;;20.50;65.72
62617;BME280;62539;51.190;6.808;2023-08-06T02:01:44;100082.69;;;20.49;65.59
62617;BME280;62539;51.190;6.808;2023-08-06T02:04:10;100085.31;;;20.49;65.75
62617;BME280;62539;51.190;6.808;2023-08-06T02:06:35;100087.94;;;20.49;65.59
62617;BME280;62539;51.190;6.808;2023-08-06T02:09:01;100079.13;;;20.50;65.69
62617;BME280;62539;51.190;6.808;2023-08-06T02:11:26;100079.13;;;20.50;65.74
62617;BME280;62539;51.190;6.808;2023-08-06T02:13:51;100083.53;;;20.50;65.58
62617;BME280;62539;51.190;6.808;2023-08-06T02:16:17;100084.38;;;20.50;65.41
62617;BME280;62539;51.190;6.808;2023-08-06T02:18:42;100082.69;;;20.49;65.70
62617;BME280;62539;51.190;6.808;2023-08-06T02:21:08;100083.53;;;20.50;65.47
62617;BME280;62539;51.190;6.808;2023-08-06T02:23:33;100082.69;;;20.49;65.38
62617;BME280;62539;51.190;6.808;2023-08-06T02:26:03;100077.41;;;20.49;65.38
62617;BME280;62539;51.190;6.808;2023-08-06T02:28:30;100080.03;;;20.49;65.65
62617;BME280;62539;51.190;6.808;2023-08-06T02:30:56;100074.78;;;20.49;65.55
62617;BME280;62539;51.190;6.808;2023-08-06T02:33:22;100073.94;;;20.49;65.62
62617;BME280;62539;51.190;6.808;2023-08-06T02:35:47;100072.13;;;20.49;65.78
62617;BME280;62539;51.190;6.808;2023-08-06T02:38:13;100072.13;;;20.49;65.61
62617;BME280;62539;51.190;6.808;2023-08-06T02:40:47;100065.16;;;20.48;65.60
62617;BME280;62539;51.190;6.808;2023-08-06T02:43:13;100076.56;;;20.49;65.59
62617;BME280;62539;51.190;6.808;2023-08-06T02:45:38;100069.50;;;20.49;65.35
62617;BME280;62539;51.190;6.808;2023-08-06T02:48:04;100066.03;;;20.49;65.36
62617;BME280;62539;51.190;6.808;2023-08-06T02:50:30;100064.25;;;20.49;65.42
62617;BME280;62539;51.190;6.808;2023-08-06T02:52:55;100064.34;;;20.48;65.39
62617;BME280;62539;51.190;6.808;2023-08-06T02:55:21;100065.16;;;20.48;65.58
62617;BME280;62539;51.190;6.808;2023-08-06T02:57:46;100059.91;;;20.48;65.58
62617;BME280;62539;51.190;6.808;2023-08-06T03:00:12;100052.09;;;20.47;65.31
62617;BME280;62539;51.190;6.808;2023-08-06T03:02:37;100059.06;;;20.48;65.37
62617;BME280;62539;51.190;6.808;2023-08-06T03:05:03;100045.97;;;20.46;65.68
62617;BME280;62539;51.190;6.808;2023-08-06T03:07:29;100041.56;;;20.47;65.45
62617;BME280;62539;51.190;6.808;2023-08-06T03:09:54;100047.66;;;20.47;65.70
62617;BME280;62539;51.190;6.808;2023-08-06T03:12:20;100038.94;;;20.47;65.40
62617;BME280;62539;51.190;6.808;2023-08-06T03:14:45;100038.06;;;20.46;65.37
62617;BME280;62539;51.190;6.808;2023-08-06T03:17:11;100035.41;;;20.46;65.56
62617;BME280;62539;51.190;6.808;2023-08-06T03:19:36;100034.66;;;20.44;65.52
62617;BME280;62539;51.190;6.808;2023-08-06T03:22:02;100037.28;;;20.44;65.41
62617;BME280;62539;51.190;6.808;2023-08-06T03:24:27;100035.59;;;20.43;65.60
62617;BME280;62539;51.190;6.808;2023-08-06T03:26:52;100040.84;;;20.43;65.43
62617;BME280;62539;51.190;6.808;2023-08-06T03:29:18;100032.13;;;20.42;65.38
62617;BME280;62539;51.190;6.808;2023-08-06T03:31:43;100035.59;;;20.43;65.68
62617;BME280;62539;51.190;6.808;2023-08-06T03:34:09;100028.63;;;20.42;65.38
62617;BME280;62539;51.190;6.808;2023-08-06T03:36:34;100034.81;;;20.41;65.46
62617;BME280;62539;51.190;6.808;2023-08-06T03:39:00;100027.78;;;20.41;65.38
62617;BME280;62539;51.190;6.808;2023-08-06T03:41:25;100032.19;;;20.41;65.47
62617;BME280;62539;51.190;6.808;2023-08-06T03:43:50;100021.66;;;20.41;65.44
62617;BME280;62539;51.190;6.808;2023-08-06T03:46:16;100030.47;;;20.40;65.61
62617;BME280;62539;51.190;6.808;2023-08-06T03:48:41;100023.50;;;20.39;65.71
62617;BME280;62539;51.190;6.808;2023-08-06T03:51:06;100027.84;;;20.40;65.76
62617;BME280;62539;51.190;6.808;2023-08-06T03:53:32;100027.94;;;20.38;65.43
62617;BME280;62539;51.190;6.808;2023-08-06T03:55:57;100027.09;;;20.38;65.55
62617;BME280;62539;51.190;6.808;2023-08-06T03:58:25;100029.72;;;20.38;65.66
62617;BME280;62539;51.190;6.808;2023-08-06T04:00:58;100028.03;;;20.37;65.50
62617;BME280;62539;51.190;6.808;2023-08-06T04:03:26;100027.94;;;20.38;65.58
62617;BME280;62539;51.190;6.808;2023-08-06T04:05:51;100028.78;;;20.39;65.45
62617;BME280;62539;51.190;6.808;2023-08-06T04:08:17;100021.81;;;20.38;65.60
62617;BME280;62539;51.190;6.808;2023-08-06T04:10:42;100033.22;;;20.38;65.70
62617;BME280;62539;51.190;6.808;2023-08-06T04:13:08;100027.09;;;20.38;65.34
62617;BME280;62539;51.190;6.808;2023-08-06T04:15:34;100027.09;;;20.38;65.61
62617;BME280;62539;51.190;6.808;2023-08-06T04:17:59;100024.44;;;20.38;65.55
62617;BME280;62539;51.190;6.808;2023-08-06T04:20:25;100024.44;;;20.38;65.70
62617;BME280;62539;51.190;6.808;2023-08-06T04:22:50;100023.50;;;20.39;65.54
62617;BME280;62539;51.190;6.808;2023-08-06T04:25:16;100031.41;;;20.39;65.57
62617;BME280;62539;51.190;6.808;2023-08-06T04:27:46;100028.88;;;20.37;65.50
62617;BME280;62539;51.190;6.808;2023-08-06T04:30:12;100025.38;;;20.37;65.42
62617;BME280;62539;51.190;6.808;2023-08-06T04:35:09;100036.78;;;20.37;65.64
62617;BME280;62539;51.190;6.808;2023-08-06T04:37:34;100027.19;;;20.36;65.35
62617;BME280;62539;51.190;6.808;2023-08-06T04:40:00;100024.53;;;20.36;65.50
62617;BME280;62539;51.190;6.808;2023-08-06T04:42:25;100033.28;;;20.37;65.39
62617;BME280;62539;51.190;6.808;2023-08-06T04:44:50;100025.38;;;20.37;65.46
62617;BME280;62539;51.190;6.808;2023-08-06T04:47:16;100029.81;;;20.36;65.31
62617;BME280;62539;51.190;6.808;2023-08-06T04:49:41;100031.59;;;20.36;65.45
62617;BME280;62539;51.190;6.808;2023-08-06T04:52:07;100033.28;;;20.37;65.69
62617;BME280;62539;51.190;6.808;2023-08-06T04:54:33;100033.28;;;20.37;65.45
62617;BME280;62539;51.190;6.808;2023-08-06T04:57:00;100038.56;;;20.37;65.50
62617;BME280;62539;51.190;6.808;2023-08-06T04:59:25;100028.88;;;20.37;65.41
62617;BME280;62539;51.190;6.808;2023-08-06T05:01:50;100040.34;;;20.36;65.56
62617;BME280;62539;51.190;6.808;2023-08-06T05:04:16;100041.19;;;20.37;65.31
62617;BME280;62539;51.190;6.808;2023-08-06T05:06:41;100034.97;;;20.38;65.40
62617;BME280;62539;51.190;6.808;2023-08-06T05:09:07;100037.63;;;20.38;65.43
62617;BME280;62539;51.190;6.808;2023-08-06T05:11:32;100036.69;;;20.39;65.45
62617;BME280;62539;51.190;6.808;2023-08-06T05:13:58;100041.88;;;20.40;65.27
62617;BME280;62539;51.190;6.808;2023-08-06T05:16:23;100042.72;;;20.41;65.42
62617;BME280;62539;51.190;6.808;2023-08-06T05:18:49;100034.81;;;20.41;65.21
62617;BME280;62539;51.190;6.808;2023-08-06T05:21:14;100049.69;;;20.42;65.41
62617;BME280;62539;51.190;6.808;2023-08-06T05:23:41;100049.63;;;20.44;65.18
62617;BME280;62539;51.190;6.808;2023-08-06T05:26:07;100046.91;;;20.45;65.24
62617;BME280;62539;51.190;6.808;2023-08-06T05:28:32;100051.22;;;20.46;65.10
62617;BME280;62539;51.190;6.808;2023-08-06T05:30:58;100049.47;;;20.47;65.08
62617;BME280;62539;51.190;6.808;2023-08-06T05:33:23;100045.91;;;20.48;64.89
62617;BME280;62539;51.190;6.808;2023-08-06T05:35:50;100047.59;;;20.49;65.22
62617;BME280;62539;51.190;6.808;2023-08-06T05:38:16;100054.47;;;20.51;65.15
62617;BME280;62539;51.190;6.808;2023-08-06T05:40:42;100050.91;;;20.52;65.00
62617;BME280;62539;51.190;6.808;2023-08-06T05:43:08;100056.94;;;20.54;64.80
62617;BME280;62539;51.190;6.808;2023-08-06T05:45:34;100052.53;;;20.55;64.91
62617;BME280;62539;51.190;6.808;2023-08-06T05:47:59;100060.28;;;20.58;64.81
62617;BME280;62539;51.190;6.808;2023-08-06T05:50:24;100061.97;;;20.59;64.96
62617;BME280;62539;51.190;6.808;2023-08-06T05:52:50;100061.88;;;20.61;64.75
62617;BME280;62539;51.190;6.808;2023-08-06T05:55:16;100063.50;;;20.63;64.89
62617;BME280;62539;51.190;6.808;2023-08-06T05:57:42;100072.19;;;20.65;64.78
62617;BME280;62539;51.190;6.808;2023-08-06T06:00:09;100066.81;;;20.67;64.58
62617;BME280;62539;51.190;6.808;2023-08-06T06:02:35;100066.63;;;20.70;64.78
62617;BME280;62539;51.190;6.808;2023-08-06T06:05:00;100060.44;;;20.71;64.61
62617;BME280;62539;51.190;6.808;2023-08-06T06:07:26;100067.34;;;20.74;64.61
62617;BME280;62539;51.190;6.808;2023-08-06T06:09:51;100073.38;;;20.76;64.65
62617;BME280;62539;51.190;6.808;2023-08-06T06:12:17;100078.50;;;20.79;64.25
62617;BME280;62539;51.190;6.808;2023-08-06T06:14:43;100076.63;;;20.81;64.49
62617;BME280;62539;51.190;6.808;2023-08-06T06:17:08;100076.47;;;20.84;64.13
62617;BME280;62539;51.190;6.808;2023-08-06T06:19:34;100082.56;;;20.84;63.94
62617;BME280;62539;51.190;6.808;2023-08-06T06:21:59;100084.09;;;20.89;64.00
62617;BME280;62539;51.190;6.808;2023-08-06T06:24:25;100078.78;;;20.90;63.92
62617;BME280;62539;51.190;6.808;2023-08-06T06:26:50;100091.78;;;20.93;63.88
62617;BME280;62539;51.190;6.808;2023-08-06T06:29:15;100089.91;;;20.95;63.77
62617;BME280;62539;51.190;6.808;2023-08-06T06:31:42;100096.03;;;20.96;63.71
62617;BME280;62539;51.190;6.808;2023-08-06T06:34:08;100097.53;;;21.00;63.83
62617;BME280;62539;51.190;6.808;2023-08-06T06:36:34;100096.63;;;21.01;63.67
62617;BME280;62539;51.190;6.808;2023-08-06T06:39:00;100097.38;;;21.03;63.71
62617;BME280;62539;51.190;6.808;2023-08-06T06:41:25;100088.53;;;21.04;63.94
62617;BME280;62539;51.190;6.808;2023-08-06T06:43:52;100094.56;;;21.06;63.69
62617;BME280;62539;51.190;6.808;2023-08-06T06:46:17;100089.13;;;21.09;63.58
62617;BME280;62539;51.190;6.808;2023-08-06T06:48:44;100093.47;;;21.10;63.42
62617;BME280;62539;51.190;6.808;2023-08-06T06:51:11;100093.28;;;21.13;63.44
62617;BME280;62539;51.190;6.808;2023-08-06T06:53:36;100093.13;;;21.17;63.71
62617;BME280;62539;51.190;6.808;2023-08-06T06:56:04;100092.09;;;21.19;63.57
62617;BME280;62539;51.190;6.808;2023-08-06T06:58:30;100101.63;;;21.22;63.14
62617;BME280;62539;51.190;6.808;2023-08-06T07:00:57;100099.75;;;21.24;62.98
62617;BME280;62539;51.190;6.808;2023-08-06T07:03:22;100104.84;;;21.27;63.30
62617;BME280;62539;51.190;6.808;2023-08-06T07:05:48;100103.81;;;21.29;63.00
62617;BME280;62539;51.190;6.808;2023-08-06T07:08:14;100105.44;;;21.32;63.14
62617;BME280;62539;51.190;6.808;2023-08-06T07:10:41;100102.63;;;21.35;63.01
62617;BME280;62539;51.190;6.808;2023-08-06T07:13:07;100109.44;;;21.39;62.96
62617;BME280;62539;51.190;6.808;2023-08-06T07:15:33;100109.25;;;21.42;62.54
62617;BME280;62539;51.190;6.808;2023-08-06T07:17:58;100099.47;;;21.44;62.50
62617;BME280;62539;51.190;6.808;2023-08-06T07:20:24;100107.03;;;21.51;62.87
62617;BME280;62539;51.190;6.808;2023-08-06T07:22:49;100108.63;;;21.53;62.80
62617;BME280;62539;51.190;6.808;2023-08-06T07:25:16;100107.50;;;21.57;62.86
62617;BME280;62539;51.190;6.808;2023-08-06T07:27:42;100104.63;;;21.62;63.35
62617;BME280;62539;51.190;6.808;2023-08-06T07:30:07;100105.22;;;21.67;63.05
62617;BME280;62539;51.190;6.808;2023-08-06T07:32:33;100107.59;;;21.72;63.07
62617;BME280;62539;51.190;6.808;2023-08-06T07:34:59;100107.31;;;21.77;63.28
62617;BME280;62539;51.190;6.808;2023-08-06T07:37:26;100108.84;;;21.81;62.92
62617;BME280;62539;51.190;6.808;2023-08-06T07:39:55;100112.06;;;21.86;63.06
62617;BME280;62539;51.190;6.808;2023-08-06T07:42:20;100115.38;;;21.90;62.87
62617;BME280;62539;51.190;6.808;2023-08-06T07:44:51;100113.28;;;21.95;62.71
62617;BME280;62539;51.190;6.808;2023-08-06T07:47:21;100119.25;;;21.98;62.72
62617;BME280;62539;51.190;6.808;2023-08-06T07:49:47;100113.69;;;22.03;62.17
62617;BME280;62539;51.190;6.808;2023-08-06T07:52:12;100118.91;;;22.05;61.99
62617;BME280;62539;51.190;6.808;2023-08-06T07:54:38;100115.13;;;22.09;61.88
62617;BME280;62539;51.190;6.808;2023-08-06T07:57:03;100113.13;;;22.12;61.62
62617;BME280;62539;51.190;6.808;2023-08-06T07:59:29;100120.81;;;22.17;61.83
62617;BME280;62539;51.190;6.808;2023-08-06T08:01:54;100122.31;;;22.21;61.79
62617;BME280;62539;51.190;6.808;2023-08-06T08:04:20;100125.53;;;22.26;61.10
62617;BME280;62539;51.190;6.808;2023-08-06T08:06:46;100132.34;;;22.30;61.06
62617;BME280;62539;51.190;6.808;2023-08-06T08:09:12;100128.56;;;22.35;61.12
62617;BME280;62539;51.190;6.808;2023-08-06T08:11:38;100130.91;;;22.39;61.18
62617;BME280;62539;51.190;6.808;2023-08-06T08:14:04;100127.25;;;22.42;61.00
62617;BME280;62539;51.190;6.808;2023-08-06T08:16:30;100131.50;;;22.44;60.48
62617;BME280;62539;51.190;6.808;2023-08-06T08:18:55;100132.19;;;22.48;60.67
62617;BME280;62539;51.190;6.808;2023-08-06T08:21:21;100134.63;;;22.51;60.58
62617;BME280;62539;51.190;6.808;2023-08-06T08:23:46;100137.09;;;22.54;60.42
62617;BME280;62539;51.190;6.808;2023-08-06T08:26:11;100130.66;;;22.58;60.34
62617;BME280;62539;51.190;6.808;2023-08-06T08:28:37;100144.66;;;22.60;60.01
62617;BME280;62539;51.190;6.808;2023-08-06T08:31:02;100138.41;;;22.61;59.94
62617;BME280;62539;51.190;6.808;2023-08-06T08:33:28;100143.59;;;22.63;59.91
62617;BME280;62539;51.190;6.808;2023-08-06T08:35:53;100142.56;;;22.66;59.69
62617;BME280;62539;51.190;6.808;2023-08-06T08:38:18;100140.69;;;22.68;59.59
62617;BME280;62539;51.190;6.808;2023-08-06T08:40:46;100141.25;;;22.73;59.29
62617;BME280;62539;51.190;6.808;2023-08-06T08:43:16;100142.63;;;22.79;59.02
62617;BME280;62539;51.190;6.808;2023-08-06T08:45:44;100144.06;;;22.84;59.33
62617;BME280;62539;51.190;6.808;2023-08-06T08:48:15;100141.97;;;22.89;59.27
62617;BME280;62539;51.190;6.808;2023-08-06T08:50:44;100146.88;;;22.96;58.83
62617;BME280;62539;51.190;6.808;2023-08-06T08:53:10;100142.16;;;23.01;58.48
62617;BME280;62539;51.190;6.808;2023-08-06T08:55:37;100144.47;;;23.05;58.33
62617;BME280;62539;51.190;6.808;2023-08-06T08:58:04;100151.28;;;23.10;58.43
62617;BME280;62539;51.190;6.808;2023-08-06T09:00:29;100148.34;;;23.14;58.12
62617;BME280;62539;51.190;6.808;2023-08-06T09:02:55;100152.50;;;23.18;57.84
62617;BME280;62539;51.190;6.808;2023-08-06T09:05:25;100153.09;;;23.24;58.13
62617;BME280;62539;51.190;6.808;2023-08-06T09:07:54;100153.66;;;23.29;57.65
62617;BME280;62539;51.190;6.808;2023-08-06T09:10:22;100161.38;;;23.32;57.50
62617;BME280;62539;51.190;6.808;2023-08-06T09:12:50;100158.44;;;23.37;57.52
62617;BME280;62539;51.190;6.808;2023-08-06T09:15:18;100163.44;;;23.41;57.52
62617;BME280;62539;51.190;6.808;2023-08-06T09:17:43;100158.69;;;23.46;57.56
62617;BME280;62539;51.190;6.808;2023-08-06T09:20:12;100163.66;;;23.51;57.30
62617;BME280;62539;51.190;6.808;2023-08-06T09:22:39;100162.44;;;23.57;57.13
62617;BME280;62539;51.190;6.808;2023-08-06T09:25:06;100158.44;;;23.64;57.05
62617;BME280;62539;51.190;6.808;2023-08-06T09:27:36;100157.09;;;23.71;57.00
62617;BME280;62539;51.190;6.808;2023-08-06T09:30:03;100169.06;;;23.77;56.73
62617;BME280;62539;51.190;6.808;2023-08-06T09:32:48;100167.06;;;23.81;56.15
62617;BME280;62539;51.190;6.808;2023-08-06T09:35:19;100179.97;;;23.85;55.96
62617;BME280;62539;51.190;6.808;2023-08-06T09:37:46;100185.16;;;23.87;56.20
62617;BME280;62539;51.190;6.808;2023-08-06T09:40:24;100201.19;;;23.85;56.17
62617;BME280;62539;51.190;6.808;2023-08-06T09:42:51;100213.47;;;23.86;55.96
62617;BME280;62539;51.190;6.808;2023-08-06T09:45:17;100213.59;;;23.85;55.64
62617;BME280;62539;51.190;6.808;2023-08-06T09:47:42;100212.84;;;23.83;55.68
62617;BME280;62539;51.190;6.808;2023-08-06T09:50:18;100211.34;;;23.78;55.85
62617;BME280;62539;51.190;6.808;2023-08-06T09:52:44;100221.28;;;23.75;56.11
62617;BME280;62539;51.190;6.808;2023-08-06T09:55:12;100226.75;;;23.72;55.93
62617;BME280;62539;51.190;6.808;2023-08-06T09:57:39;100222.72;;;23.66;56.29
62617;BME280;62539;51.190;6.808;2023-08-06T10:00:07;100222.25;;;23.59;56.08
62617;BME280;62539;51.190;6.808;2023-08-06T10:02:40;100229.09;;;23.49;55.86
62617;BME280;62539;51.190;6.808;2023-08-06T10:05:07;100227.91;;;23.40;56.20
62617;BME280;62539;51.190;6.808;2023-08-06T10:07:33;100231.22;;;23.29;56.67
62617;BME280;62539;51.190;6.808;2023-08-06T10:09:59;100230.94;;;23.19;56.80
62617;BME280;62539;51.190;6.808;2023-08-06T10:12:28;100231.31;;;23.13;56.68
62617;BME280;62539;51.190;6.808;2023-08-06T10:14:59;100235.38;;;23.04;57.29
62617;BME280;62539;51.190;6.808;2023-08-06T10:17:30;100237.56;;;22.98;57.07
62617;BME280;62539;51.190;6.808;2023-08-06T10:19:58;100234.53;;;22.89;57.60
62617;BME280;62539;51.190;6.808;2023-08-06T10:22:24;100239.25;;;22.84;57.37
62617;BME280;62539;51.190;6.808;2023-08-06T10:24:52;100238.78;;;22.78;57.53
62617;BME280;62539;51.190;6.808;2023-08-06T10:28:02;100244.53;;;22.70;57.72
62617;BME280;62539;51.190;6.808;2023-08-06T10:32:59;100259.44;;;22.56;58.72
62617;BME280;62539;51.190;6.808;2023-08-06T10:38:14;100264.75;;;22.40;59.28
62617;BME280;62539;51.190;6.808;2023-08-06T10:40:42;100265.03;;;22.36;59.11
62617;BME280;62539;51.190;6.808;2023-08-06T10:43:25;100270.66;;;22.29;59.28
62617;BME280;62539;51.190;6.808;2023-08-06T10:45:51;100273.66;;;22.23;59.76
62617;BME280;62539;51.190;6.808;2023-08-06T10:48:37;100273.25;;;22.15;59.72
62617;BME280;62539;51.190;6.808;2023-08-06T10:51:11;100284.06;;;22.10;59.97
62617;BME280;62539;51.190;6.808;2023-08-06T10:53:42;100287.00;;;22.06;60.22
62617;BME280;62539;51.190;6.808;2023-08-06T10:56:19;100291.69;;;22.00;60.35
62617;BME280;62539;51.190;6.808;2023-08-06T10:58:51;100294.50;;;21.97;60.06
62617;BME280;62539;51.190;6.808;2023-08-06T11:01:18;100298.09;;;21.96;60.41
62617;BME280;62539;51.190;6.808;2023-08-06T11:03:45;100300.03;;;21.93;60.58
62617;BME280;62539;51.190;6.808;2023-08-06T11:06:19;100307.19;;;21.91;60.62
62617;BME280;62539;51.190;6.808;2023-08-06T11:08:51;100302.84;;;21.90;60.54
62617;BME280;62539;51.190;6.808;2023-08-06T11:11:18;100310.09;;;21.86;60.67
62617;BME280;62539;51.190;6.808;2023-08-06T11:13:45;100316.38;;;21.83;60.35
62617;BME280;62539;51.190;6.808;2023-08-06T11:16:14;100308.56;;;21.82;60.71
62617;BME280;62539;51.190;6.808;2023-08-06T11:18:40;100307.03;;;21.78;60.61
62617;BME280;62539;51.190;6.808;2023-08-06T11:21:07;100310.78;;;21.73;60.64
62617;BME280;62539;51.190;6.808;2023-08-06T11:23:34;100317.84;;;21.73;61.01
62617;BME280;62539;51.190;6.808;2023-08-06T11:26:00;100310.00;;;21.71;60.61
62617;BME280;62539;51.190;6.808;2023-08-06T11:28:26;100319.72;;;21.71;60.98
62617;BME280;62539;51.190;6.808;2023-08-06T11:30:52;100328.56;;;21.70;60.83
62617;BME280;62539;51.190;6.808;2023-08-06T11:33:23;100326.03;;;21.68;61.14
62617;BME280;62539;51.190;6.808;2023-08-06T11:35:50;100334.94;;;21.66;61.18
62617;BME280;62539;51.190;6.808;2023-08-06T11:38:17;100333.34;;;21.63;61.12
62617;BME280;62539;51.190;6.808;2023-08-06T11:40:45;100334.25;;;21.62;61.02
62617;BME280;62539;51.190;6.808;2023-08-06T11:43:13;100331.59;;;21.62;60.96
62617;BME280;62539;51.190;6.808;2023-08-06T11:45:39;100340.63;;;21.58;61.22
62617;BME280;62539;51.190;6.808;2023-08-06T11:48:05;100338.91;;;21.57;61.26
62617;BME280;62539;51.190;6.808;2023-08-06T11:50:36;100344.38;;;21.54;61.40
62617;BME280;62539;51.190;6.808;2023-08-06T11:53:03;100335.69;;;21.52;61.18
62617;BME280;62539;51.190;6.808;2023-08-06T11:55:29;100346.41;;;21.49;61.56
62617;BME280;62539;51.190;6.808;2023-08-06T11:57:55;100343.81;;;21.47;61.37
62617;BME280;62539;51.190;6.808;2023-08-06T12:00:23;100353.56;;;21.47;61.63
62617;BME280;62539;51.190;6.808;2023-08-06T12:02:50;100354.66;;;21.42;61.50
62617;BME280;62539;51.190;6.808;2023-08-06T12:07:50;100361.69;;;21.42;61.98
62617;BME280;62539;51.190;6.808;2023-08-06T12:10:22;100357.44;;;21.39;61.99
62617;BME280;62539;51.190;6.808;2023-08-06T12:12:49;100363.66;;;21.38;61.75
62617;BME280;62539;51.190;6.808;2023-08-06T12:15:15;100358.44;;;21.37;61.72
62617;BME280;62539;51.190;6.808;2023-08-06T12:17:41;100355.81;;;21.37;62.26
62617;BME280;62539;51.190;6.808;2023-08-06T12:20:08;100362.03;;;21.36;62.18
62617;BME280;62539;51.190;6.808;2023-08-06T12:22:35;100366.47;;;21.35;62.11
62617;BME280;62539;51.190;6.808;2023-08-06T12:25:03;100372.66;;;21.34;61.88
62617;BME280;62539;51.190;6.808;2023-08-06T12:27:36;100380.59;;;21.34;62.18
62617;BME280;62539;51.190;6.808;2023-08-06T12:30:03;100379.81;;;21.32;62.20
62617;BME280;62539;51.190;6.808;2023-08-06T12:32:29;100371.91;;;21.32;61.95
62617;BME280;62539;51.190;6.808;2023-08-06T12:34:55;100370.97;;;21.33;62.01
62617;BME280;62539;51.190;6.808;2023-08-06T12:37:21;100375.38;;;21.33;61.95
62617;BME280;62539;51.190;6.808;2023-08-06T12:39:46;100386.69;;;21.35;62.29
62617;BME280;62539;51.190;6.808;2023-08-06T12:42:12;100386.69;;;21.35;61.90
62617;BME280;62539;51.190;6.808;2023-08-06T12:44:38;100384.00;;;21.36;61.71
62617;BME280;62539;51.190;6.808;2023-08-06T12:47:03;100388.34;;;21.37;61.91
62617;BME280;62539;51.190;6.808;2023-08-06T12:49:29;100389.13;;;21.39;61.92
62617;BME280;62539;51.190;6.808;2023-08-06T12:51:56;100385.53;;;21.40;61.78
62617;BME280;62539;51.190;6.808;2023-08-06T12:54:22;100396.88;;;21.42;61.58
62617;BME280;62539;51.190;6.808;2023-08-06T12:56:48;100406.50;;;21.43;61.50
62617;BME280;62539;51.190;6.808;2023-08-06T12:59:15;100407.31;;;21.44;61.88
62617;BME280;62539;51.190;6.808;2023-08-06T13:01:43;100409.81;;;21.47;61.48